Main page
METAR-TAF:

METAR-TAF

Airports :

Bacha Khan International Airport

Peshawar, Pakistan

latitude: 34-01N, longitude: 071-35E, elevation: 359 m

Current weather observation

The report was made 22 minutes ago, at 22:30 UTC
Wind 4 kt from the Southwest
Temperature 12°C
Humidity 82%
Pressure 1017 hPa
Visibility: 4000 m
Clear sky
haze

METAR: OPPS 142230Z 23004KT 4000 HZ SKC 12/09 Q1017

Time: 03:52 (22:52 UTC)

Forecast

The report was made 7 hours and 44 minutes ago, at 15:08 UTC
Forecast valid from 14 at 18 UTC to 15 at 24 UTC
Wind 15 kt from the Northwest
Visibility: 4000 m
Few clouds at a height of 4000 ft
Scattered clouds at a height of 10000 ft
haze
Temporary
from 15 at 02 UTC to 15 at 06 UTC
Visibility: 3000 m
mist
Temporary
from 15 at 09 UTC to 15 at 12 UTC
Scattered clouds at a height of 4000 ft
Broken clouds at a height of 10000 ft
thunderstorm in vicinity

TAF: OPPS 141508Z 1418/1524 31015KT 4000 HZ FEW040 SCT100 TEMPO 1502/1506 3000 BR TEMPO 1509/1512 VCTS SCT040 BKN100

Weather observations and forecasts of more than 4000 airports (METAR and TAF reports).

The available stations are represented by yellow and red dots on the map.

Hover mouse over dot to see the name of the station.

Then click to see weather observations and forecasts.

To change the map : click on the green buttons with a black cross to zoom in, on the green button with a dash to zoom out, or on the green arrows for adjacent maps.


METAR-TAF: